sensor_id;sensor_type;location;lat;lon;timestamp;P1;durP1;ratioP1;P2;durP2;ratioP2
12591;SDS011;6361;52.120;5.108;2023-04-15T00:02:15;12.15;;;5.43;;
12591;SDS011;6361;52.120;5.108;2023-04-15T00:04:42;8.73;;;4.75;;
12591;SDS011;6361;52.120;5.108;2023-04-15T00:07:08;8.65;;;5.38;;
12591;SDS011;6361;52.120;5.108;2023-04-15T00:09:34;12.40;;;5.70;;
12591;SDS011;6361;52.120;5.108;2023-04-15T00:11:59;11.68;;;5.70;;
12591;SDS011;6361;52.120;5.108;2023-04-15T00:14:24;7.70;;;5.47;;
12591;SDS011;6361;52.120;5.108;2023-04-15T00:16:50;10.13;;;5.78;;
12591;SDS011;6361;52.120;5.108;2023-04-15T00:19:19;10.50;;;5.35;;
12591;SDS011;6361;52.120;5.108;2023-04-15T00:21:45;10.23;;;5.60;;
12591;SDS011;6361;52.120;5.108;2023-04-15T00:24:11;13.27;;;5.93;;
12591;SDS011;6361;52.120;5.108;2023-04-15T00:26:37;13.00;;;6.63;;
12591;SDS011;6361;52.120;5.108;2023-04-15T00:29:03;12.68;;;5.93;;
12591;SDS011;6361;52.120;5.108;2023-04-15T00:31:28;10.20;;;5.53;;
12591;SDS011;6361;52.120;5.108;2023-04-15T00:33:54;10.15;;;5.90;;
12591;SDS011;6361;52.120;5.108;2023-04-15T00:36:20;10.40;;;5.60;;
12591;SDS011;6361;52.120;5.108;2023-04-15T00:38:45;9.55;;;5.80;;
12591;SDS011;6361;52.120;5.108;2023-04-15T00:41:11;9.93;;;5.75;;
12591;SDS011;6361;52.120;5.108;2023-04-15T00:43:36;12.98;;;5.90;;
12591;SDS011;6361;52.120;5.108;2023-04-15T00:46:03;10.88;;;6.00;;
12591;SDS011;6361;52.120;5.108;2023-04-15T00:48:29;11.02;;;5.97;;
12591;SDS011;6361;52.120;5.108;2023-04-15T00:50:54;10.18;;;5.80;;
12591;SDS011;6361;52.120;5.108;2023-04-15T00:53:20;14.18;;;6.28;;
12591;SDS011;6361;52.120;5.108;2023-04-15T00:55:45;9.75;;;5.95;;
12591;SDS011;6361;52.120;5.108;2023-04-15T00:58:11;10.93;;;5.53;;
12591;SDS011;6361;52.120;5.108;2023-04-15T01:00:36;9.82;;;5.40;;
12591;SDS011;6361;52.120;5.108;2023-04-15T01:03:01;17.90;;;5.95;;
12591;SDS011;6361;52.120;5.108;2023-04-15T01:05:27;11.57;;;5.60;;
12591;SDS011;6361;52.120;5.108;2023-04-15T01:07:52;9.63;;;5.28;;
12591;SDS011;6361;52.120;5.108;2023-04-15T01:10:19;8.38;;;5.32;;
12591;SDS011;6361;52.120;5.108;2023-04-15T01:12:45;10.95;;;5.38;;
12591;SDS011;6361;52.120;5.108;2023-04-15T01:15:10;10.50;;;5.20;;
12591;SDS011;6361;52.120;5.108;2023-04-15T01:17:36;11.45;;;5.72;;
12591;SDS011;6361;52.120;5.108;2023-04-15T01:20:02;10.63;;;5.47;;
12591;SDS011;6361;52.120;5.108;2023-04-15T01:22:29;11.88;;;5.75;;
12591;SDS011;6361;52.120;5.108;2023-04-15T01:25:04;8.35;;;5.40;;
12591;SDS011;6361;52.120;5.108;2023-04-15T01:27:32;8.95;;;5.40;;
12591;SDS011;6361;52.120;5.108;2023-04-15T01:29:59;8.77;;;5.20;;
12591;SDS011;6361;52.120;5.108;2023-04-15T01:32:25;10.18;;;5.30;;
12591;SDS011;6361;52.120;5.108;2023-04-15T01:34:51;8.75;;;5.50;;
12591;SDS011;6361;52.120;5.108;2023-04-15T01:37:16;10.77;;;5.50;;
12591;SDS011;6361;52.120;5.108;2023-04-15T01:39:42;10.02;;;5.43;;
12591;SDS011;6361;52.120;5.108;2023-04-15T01:42:07;14.00;;;5.40;;
12591;SDS011;6361;52.120;5.108;2023-04-15T01:44:32;8.40;;;5.07;;
12591;SDS011;6361;52.120;5.108;2023-04-15T01:46:58;9.55;;;5.40;;
12591;SDS011;6361;52.120;5.108;2023-04-15T01:49:23;8.00;;;4.90;;
12591;SDS011;6361;52.120;5.108;2023-04-15T01:51:48;12.98;;;5.50;;
12591;SDS011;6361;52.120;5.108;2023-04-15T01:54:14;7.10;;;5.32;;
12591;SDS011;6361;52.120;5.108;2023-04-15T01:56:39;10.07;;;5.65;;
12591;SDS011;6361;52.120;5.108;2023-04-15T01:59:05;9.43;;;5.65;;
12591;SDS011;6361;52.120;5.108;2023-04-15T02:01:30;9.18;;;6.00;;
12591;SDS011;6361;52.120;5.108;2023-04-15T02:03:55;9.82;;;5.97;;
12591;SDS011;6361;52.120;5.108;2023-04-15T02:06:21;10.13;;;5.85;;
12591;SDS011;6361;52.120;5.108;2023-04-15T02:08:46;13.25;;;5.95;;
12591;SDS011;6361;52.120;5.108;2023-04-15T02:11:12;10.18;;;5.68;;
12591;SDS011;6361;52.120;5.108;2023-04-15T02:13:37;10.13;;;6.32;;
12591;SDS011;6361;52.120;5.108;2023-04-15T02:16:02;9.90;;;5.75;;
12591;SDS011;6361;52.120;5.108;2023-04-15T02:18:28;13.80;;;6.53;;
12591;SDS011;6361;52.120;5.108;2023-04-15T02:20:53;9.38;;;6.30;;
12591;SDS011;6361;52.120;5.108;2023-04-15T02:23:21;10.52;;;5.90;;
12591;SDS011;6361;52.120;5.108;2023-04-15T02:25:46;11.52;;;5.90;;
12591;SDS011;6361;52.120;5.108;2023-04-15T02:28:11;9.05;;;6.35;;
12591;SDS011;6361;52.120;5.108;2023-04-15T02:30:37;9.95;;;6.22;;
12591;SDS011;6361;52.120;5.108;2023-04-15T02:33:02;12.00;;;6.72;;
12591;SDS011;6361;52.120;5.108;2023-04-15T02:35:28;10.32;;;6.30;;
12591;SDS011;6361;52.120;5.108;2023-04-15T02:37:53;9.57;;;6.22;;
12591;SDS011;6361;52.120;5.108;2023-04-15T02:40:18;10.13;;;6.10;;
12591;SDS011;6361;52.120;5.108;2023-04-15T02:42:44;12.73;;;6.55;;
12591;SDS011;6361;52.120;5.108;2023-04-15T02:45:09;11.85;;;6.78;;
12591;SDS011;6361;52.120;5.108;2023-04-15T02:47:36;13.90;;;6.97;;
12591;SDS011;6361;52.120;5.108;2023-04-15T02:50:06;10.98;;;6.40;;
12591;SDS011;6361;52.120;5.108;2023-04-15T02:52:33;11.50;;;6.15;;
12591;SDS011;6361;52.120;5.108;2023-04-15T02:54:58;9.10;;;6.22;;
12591;SDS011;6361;52.120;5.108;2023-04-15T02:57:26;10.88;;;6.03;;
12591;SDS011;6361;52.120;5.108;2023-04-15T02:59:55;9.00;;;6.28;;
12591;SDS011;6361;52.120;5.108;2023-04-15T03:02:20;11.40;;;6.43;;
12591;SDS011;6361;52.120;5.108;2023-04-15T03:04:45;12.25;;;6.30;;
12591;SDS011;6361;52.120;5.108;2023-04-15T03:07:11;9.98;;;6.65;;
12591;SDS011;6361;52.120;5.108;2023-04-15T03:09:36;9.50;;;6.60;;
12591;SDS011;6361;52.120;5.108;2023-04-15T03:12:04;11.93;;;6.68;;
12591;SDS011;6361;52.120;5.108;2023-04-15T03:14:29;11.88;;;6.30;;
12591;SDS011;6361;52.120;5.108;2023-04-15T03:16:55;10.13;;;6.15;;
12591;SDS011;6361;52.120;5.108;2023-04-15T03:19:21;10.98;;;6.25;;
12591;SDS011;6361;52.120;5.108;2023-04-15T03:21:46;8.95;;;6.35;;
12591;SDS011;6361;52.120;5.108;2023-04-15T03:24:11;9.82;;;5.63;;
12591;SDS011;6361;52.120;5.108;2023-04-15T03:26:37;11.35;;;6.55;;
12591;SDS011;6361;52.120;5.108;2023-04-15T03:29:02;10.82;;;6.68;;
12591;SDS011;6361;52.120;5.108;2023-04-15T03:31:28;14.88;;;6.50;;
12591;SDS011;6361;52.120;5.108;2023-04-15T03:33:53;9.55;;;6.88;;
12591;SDS011;6361;52.120;5.108;2023-04-15T03:36:18;9.70;;;6.20;;
12591;SDS011;6361;52.120;5.108;2023-04-15T03:38:44;12.30;;;6.72;;
12591;SDS011;6361;52.120;5.108;2023-04-15T03:41:09;10.85;;;6.75;;
12591;SDS011;6361;52.120;5.108;2023-04-15T03:43:35;10.55;;;6.70;;
12591;SDS011;6361;52.120;5.108;2023-04-15T03:46:00;12.52;;;6.90;;
12591;SDS011;6361;52.120;5.108;2023-04-15T03:48:26;8.20;;;6.57;;
12591;SDS011;6361;52.120;5.108;2023-04-15T03:50:51;9.68;;;6.18;;
12591;SDS011;6361;52.120;5.108;2023-04-15T03:53:16;10.82;;;6.90;;
12591;SDS011;6361;52.120;5.108;2023-04-15T03:55:42;11.90;;;6.50;;
12591;SDS011;6361;52.120;5.108;2023-04-15T03:58:07;10.95;;;6.90;;
12591;SDS011;6361;52.120;5.108;2023-04-15T04:00:36;12.30;;;6.85;;
12591;SDS011;6361;52.120;5.108;2023-04-15T04:03:02;10.18;;;7.10;;
12591;SDS011;6361;52.120;5.108;2023-04-15T04:05:27;10.77;;;6.35;;
12591;SDS011;6361;52.120;5.108;2023-04-15T04:07:52;14.30;;;7.00;;
12591;SDS011;6361;52.120;5.108;2023-04-15T04:10:18;10.82;;;6.80;;
12591;SDS011;6361;52.120;5.108;2023-04-15T04:12:43;10.38;;;6.93;;
12591;SDS011;6361;52.120;5.108;2023-04-15T04:15:09;12.73;;;7.45;;
12591;SDS011;6361;52.120;5.108;2023-04-15T04:17:35;11.43;;;6.78;;
12591;SDS011;6361;52.120;5.108;2023-04-15T04:20:00;10.80;;;6.43;;
12591;SDS011;6361;52.120;5.108;2023-04-15T04:22:26;9.43;;;6.13;;
12591;SDS011;6361;52.120;5.108;2023-04-15T04:24:51;10.90;;;6.63;;
12591;SDS011;6361;52.120;5.108;2023-04-15T04:27:19;9.93;;;6.30;;
12591;SDS011;6361;52.120;5.108;2023-04-15T04:29:45;11.63;;;6.82;;
12591;SDS011;6361;52.120;5.108;2023-04-15T04:32:11;11.40;;;6.97;;
12591;SDS011;6361;52.120;5.108;2023-04-15T04:34:37;10.90;;;6.68;;
12591;SDS011;6361;52.120;5.108;2023-04-15T04:37:02;12.05;;;7.10;;
12591;SDS011;6361;52.120;5.108;2023-04-15T04:39:27;10.32;;;6.75;;
12591;SDS011;6361;52.120;5.108;2023-04-15T04:41:53;11.35;;;6.93;;
12591;SDS011;6361;52.120;5.108;2023-04-15T04:44:18;8.80;;;6.50;;
12591;SDS011;6361;52.120;5.108;2023-04-15T04:46:43;9.93;;;6.50;;
12591;SDS011;6361;52.120;5.108;2023-04-15T04:49:09;11.88;;;6.70;;
12591;SDS011;6361;52.120;5.108;2023-04-15T04:51:34;9.55;;;7.00;;
12591;SDS011;6361;52.120;5.108;2023-04-15T04:54:00;11.20;;;7.15;;
12591;SDS011;6361;52.120;5.108;2023-04-15T04:56:25;16.45;;;7.45;;
12591;SDS011;6361;52.120;5.108;2023-04-15T04:58:51;11.93;;;7.63;;
12591;SDS011;6361;52.120;5.108;2023-04-15T05:01:16;10.75;;;7.47;;
12591;SDS011;6361;52.120;5.108;2023-04-15T05:03:41;9.88;;;6.95;;
12591;SDS011;6361;52.120;5.108;2023-04-15T05:06:07;9.55;;;6.72;;
12591;SDS011;6361;52.120;5.108;2023-04-15T05:08:33;13.50;;;7.70;;
12591;SDS011;6361;52.120;5.108;2023-04-15T05:10:58;14.68;;;7.18;;
12591;SDS011;6361;52.120;5.108;2023-04-15T05:13:26;9.88;;;6.82;;
12591;SDS011;6361;52.120;5.108;2023-04-15T05:15:51;11.43;;;7.35;;
12591;SDS011;6361;52.120;5.108;2023-04-15T05:18:17;13.38;;;7.65;;
12591;SDS011;6361;52.120;5.108;2023-04-15T05:20:42;11.88;;;7.22;;
12591;SDS011;6361;52.120;5.108;2023-04-15T05:23:08;14.95;;;6.82;;
12591;SDS011;6361;52.120;5.108;2023-04-15T05:25:33;12.65;;;7.05;;
12591;SDS011;6361;52.120;5.108;2023-04-15T05:27:58;10.98;;;7.30;;
12591;SDS011;6361;52.120;5.108;2023-04-15T05:30:24;11.75;;;6.95;;
12591;SDS011;6361;52.120;5.108;2023-04-15T05:32:50;13.20;;;7.18;;
12591;SDS011;6361;52.120;5.108;2023-04-15T05:35:15;13.65;;;7.80;;
12591;SDS011;6361;52.120;5.108;2023-04-15T05:37:41;13.05;;;7.82;;
12591;SDS011;6361;52.120;5.108;2023-04-15T05:40:07;11.25;;;7.35;;
12591;SDS011;6361;52.120;5.108;2023-04-15T05:42:34;10.10;;;7.43;;
12591;SDS011;6361;52.120;5.108;2023-04-15T05:45:00;13.88;;;7.38;;
12591;SDS011;6361;52.120;5.108;2023-04-15T05:47:25;10.60;;;7.25;;
12591;SDS011;6361;52.120;5.108;2023-04-15T05:49:51;11.57;;;7.28;;
12591;SDS011;6361;52.120;5.108;2023-04-15T05:52:16;13.57;;;7.35;;
12591;SDS011;6361;52.120;5.108;2023-04-15T05:54:42;13.48;;;7.70;;
12591;SDS011;6361;52.120;5.108;2023-04-15T05:57:07;12.50;;;7.60;;
12591;SDS011;6361;52.120;5.108;2023-04-15T05:59:32;11.15;;;7.15;;
12591;SDS011;6361;52.120;5.108;2023-04-15T06:01:58;12.13;;;7.03;;
12591;SDS011;6361;52.120;5.108;2023-04-15T06:04:23;11.52;;;7.65;;
12591;SDS011;6361;52.120;5.108;2023-04-15T06:06:48;12.18;;;8.05;;
12591;SDS011;6361;52.120;5.108;2023-04-15T06:09:14;11.45;;;7.68;;
12591;SDS011;6361;52.120;5.108;2023-04-15T06:11:39;14.57;;;7.63;;
12591;SDS011;6361;52.120;5.108;2023-04-15T06:14:05;12.15;;;7.60;;
12591;SDS011;6361;52.120;5.108;2023-04-15T06:16:30;13.45;;;7.53;;
12591;SDS011;6361;52.120;5.108;2023-04-15T06:18:56;13.43;;;7.78;;
12591;SDS011;6361;52.120;5.108;2023-04-15T06:21:21;10.68;;;7.78;;
12591;SDS011;6361;52.120;5.108;2023-04-15T06:23:46;15.70;;;7.70;;
12591;SDS011;6361;52.120;5.108;2023-04-15T06:26:12;14.02;;;8.20;;
12591;SDS011;6361;52.120;5.108;2023-04-15T06:28:37;11.02;;;8.23;;
12591;SDS011;6361;52.120;5.108;2023-04-15T06:31:03;12.93;;;8.35;;
12591;SDS011;6361;52.120;5.108;2023-04-15T06:33:28;11.40;;;8.50;;
12591;SDS011;6361;52.120;5.108;2023-04-15T06:35:53;14.95;;;8.35;;
12591;SDS011;6361;52.120;5.108;2023-04-15T06:38:19;11.70;;;7.88;;
12591;SDS011;6361;52.120;5.108;2023-04-15T06:40:44;14.50;;;8.77;;
12591;SDS011;6361;52.120;5.108;2023-04-15T06:43:10;12.65;;;8.05;;
12591;SDS011;6361;52.120;5.108;2023-04-15T06:45:35;12.75;;;8.52;;
12591;SDS011;6361;52.120;5.108;2023-04-15T06:48:01;13.35;;;8.73;;
12591;SDS011;6361;52.120;5.108;2023-04-15T06:50:26;11.95;;;8.90;;
12591;SDS011;6361;52.120;5.108;2023-04-15T06:52:52;10.77;;;8.18;;
12591;SDS011;6361;52.120;5.108;2023-04-15T06:55:18;12.52;;;9.00;;
12591;SDS011;6361;52.120;5.108;2023-04-15T06:57:43;11.55;;;8.52;;
12591;SDS011;6361;52.120;5.108;2023-04-15T07:00:09;13.23;;;9.18;;
12591;SDS011;6361;52.120;5.108;2023-04-15T07:02:36;12.85;;;8.38;;
12591;SDS011;6361;52.120;5.108;2023-04-15T07:05:01;14.60;;;9.00;;
12591;SDS011;6361;52.120;5.108;2023-04-15T07:07:27;13.55;;;9.40;;
12591;SDS011;6361;52.120;5.108;2023-04-15T07:09:52;15.35;;;9.38;;
12591;SDS011;6361;52.120;5.108;2023-04-15T07:12:17;14.10;;;10.13;;
12591;SDS011;6361;52.120;5.108;2023-04-15T07:14:43;12.32;;;9.38;;
12591;SDS011;6361;52.120;5.108;2023-04-15T07:17:08;14.07;;;9.93;;
12591;SDS011;6361;52.120;5.108;2023-04-15T07:19:34;16.50;;;11.77;;
12591;SDS011;6361;52.120;5.108;2023-04-15T07:21:59;17.65;;;11.50;;
12591;SDS011;6361;52.120;5.108;2023-04-15T07:24:25;15.48;;;10.90;;
12591;SDS011;6361;52.120;5.108;2023-04-15T07:26:53;15.27;;;9.95;;
12591;SDS011;6361;52.120;5.108;2023-04-15T07:29:22;13.30;;;9.80;;
12591;SDS011;6361;52.120;5.108;2023-04-15T07:31:47;12.00;;;9.07;;
12591;SDS011;6361;52.120;5.108;2023-04-15T07:34:13;13.30;;;9.40;;
12591;SDS011;6361;52.120;5.108;2023-04-15T07:36:44;11.90;;;8.77;;
12591;SDS011;6361;52.120;5.108;2023-04-15T07:39:10;12.75;;;8.68;;
12591;SDS011;6361;52.120;5.108;2023-04-15T07:41:35;12.95;;;8.82;;
12591;SDS011;6361;52.120;5.108;2023-04-15T07:44:01;12.00;;;7.97;;
12591;SDS011;6361;52.120;5.108;2023-04-15T07:46:26;10.85;;;7.28;;
12591;SDS011;6361;52.120;5.108;2023-04-15T07:48:52;10.05;;;6.93;;
12591;SDS011;6361;52.120;5.108;2023-04-15T07:51:18;9.25;;;6.50;;
12591;SDS011;6361;52.120;5.108;2023-04-15T07:53:45;8.43;;;7.00;;
12591;SDS011;6361;52.120;5.108;2023-04-15T07:56:11;9.27;;;6.95;;
12591;SDS011;6361;52.120;5.108;2023-04-15T07:58:37;10.02;;;6.47;;
12591;SDS011;6361;52.120;5.108;2023-04-15T08:01:03;10.65;;;6.95;;
12591;SDS011;6361;52.120;5.108;2023-04-15T08:03:28;9.45;;;7.45;;
12591;SDS011;6361;52.120;5.108;2023-04-15T08:05:54;9.23;;;7.10;;
12591;SDS011;6361;52.120;5.108;2023-04-15T08:08:19;12.00;;;7.55;;
12591;SDS011;6361;52.120;5.108;2023-04-15T08:10:45;12.15;;;8.63;;
12591;SDS011;6361;52.120;5.108;2023-04-15T08:13:10;10.50;;;7.20;;
12591;SDS011;6361;52.120;5.108;2023-04-15T08:15:36;13.63;;;7.07;;
12591;SDS011;6361;52.120;5.108;2023-04-15T08:18:02;9.63;;;6.43;;
12591;SDS011;6361;52.120;5.108;2023-04-15T08:20:27;10.02;;;6.00;;
12591;SDS011;6361;52.120;5.108;2023-04-15T08:22:52;8.48;;;6.22;;
12591;SDS011;6361;52.120;5.108;2023-04-15T08:25:18;11.05;;;7.22;;
12591;SDS011;6361;52.120;5.108;2023-04-15T08:27:44;9.25;;;6.75;;
12591;SDS011;6361;52.120;5.108;2023-04-15T08:30:10;10.10;;;6.93;;
12591;SDS011;6361;52.120;5.108;2023-04-15T08:32:35;10.52;;;6.47;;
12591;SDS011;6361;52.120;5.108;2023-04-15T08:35:01;10.07;;;6.65;;
12591;SDS011;6361;52.120;5.108;2023-04-15T08:37:27;9.38;;;6.97;;
12591;SDS011;6361;52.120;5.108;2023-04-15T08:39:52;9.15;;;6.47;;
12591;SDS011;6361;52.120;5.108;2023-04-15T08:42:18;10.25;;;7.13;;
12591;SDS011;6361;52.120;5.108;2023-04-15T08:44:48;10.05;;;6.70;;
12591;SDS011;6361;52.120;5.108;2023-04-15T08:47:13;9.73;;;6.40;;
12591;SDS011;6361;52.120;5.108;2023-04-15T08:49:39;9.27;;;6.10;;
12591;SDS011;6361;52.120;5.108;2023-04-15T08:52:08;10.02;;;6.68;;
12591;SDS011;6361;52.120;5.108;2023-04-15T08:54:34;8.98;;;6.50;;
12591;SDS011;6361;52.120;5.108;2023-04-15T08:56:59;13.88;;;6.70;;
12591;SDS011;6361;52.120;5.108;2023-04-15T08:59:26;8.77;;;6.00;;
12591;SDS011;6361;52.120;5.108;2023-04-15T09:01:51;9.77;;;6.05;;
12591;SDS011;6361;52.120;5.108;2023-04-15T09:04:17;10.43;;;6.07;;
12591;SDS011;6361;52.120;5.108;2023-04-15T09:06:42;9.88;;;6.10;;
12591;SDS011;6361;52.120;5.108;2023-04-15T09:09:08;11.18;;;5.90;;
12591;SDS011;6361;52.120;5.108;2023-04-15T09:11:33;8.63;;;5.35;;
12591;SDS011;6361;52.120;5.108;2023-04-15T09:13:59;8.52;;;5.30;;
12591;SDS011;6361;52.120;5.108;2023-04-15T09:16:24;8.35;;;4.35;;
12591;SDS011;6361;52.120;5.108;2023-04-15T09:18:50;7.13;;;3.75;;
12591;SDS011;6361;52.120;5.108;2023-04-15T09:21:16;6.05;;;3.47;;
12591;SDS011;6361;52.120;5.108;2023-04-15T09:23:55;5.10;;;3.88;;
12591;SDS011;6361;52.120;5.108;2023-04-15T09:26:34;5.65;;;3.47;;
12591;SDS011;6361;52.120;5.108;2023-04-15T09:29:04;5.57;;;3.70;;
12591;SDS011;6361;52.120;5.108;2023-04-15T09:31:31;6.30;;;3.95;;
12591;SDS011;6361;52.120;5.108;2023-04-15T09:33:57;7.30;;;4.15;;
12591;SDS011;6361;52.120;5.108;2023-04-15T09:36:22;6.30;;;4.28;;
12591;SDS011;6361;52.120;5.108;2023-04-15T09:38:55;8.95;;;4.55;;
12591;SDS011;6361;52.120;5.108;2023-04-15T09:41:21;10.70;;;4.90;;
12591;SDS011;6361;52.120;5.108;2023-04-15T09:43:48;8.57;;;5.13;;
12591;SDS011;6361;52.120;5.108;2023-04-15T09:46:13;8.10;;;4.53;;
12591;SDS011;6361;52.120;5.108;2023-04-15T09:48:38;7.40;;;4.75;;
12591;SDS011;6361;52.120;5.108;2023-04-15T09:51:04;9.10;;;5.20;;
12591;SDS011;6361;52.120;5.108;2023-04-15T09:53:31;7.93;;;4.55;;
12591;SDS011;6361;52.120;5.108;2023-04-15T09:55:58;5.78;;;3.58;;
12591;SDS011;6361;52.120;5.108;2023-04-15T10:00:56;4.90;;;2.90;;
12591;SDS011;6361;52.120;5.108;2023-04-15T10:03:23;4.68;;;2.65;;
12591;SDS011;6361;52.120;5.108;2023-04-15T10:05:51;3.25;;;2.42;;
12591;SDS011;6361;52.120;5.108;2023-04-15T10:08:19;4.97;;;2.50;;
12591;SDS011;6361;52.120;5.108;2023-04-15T10:10:47;2.92;;;2.22;;
12591;SDS011;6361;52.120;5.108;2023-04-15T10:13:13;3.75;;;2.35;;
12591;SDS011;6361;52.120;5.108;2023-04-15T10:15:43;3.25;;;2.15;;
12591;SDS011;6361;52.120;5.108;2023-04-15T10:18:09;2.45;;;2.17;;
12591;SDS011;6361;52.120;5.108;2023-04-15T10:20:35;3.70;;;2.47;;
12591;SDS011;6361;52.120;5.108;2023-04-15T10:23:00;2.60;;;2.40;;
12591;SDS011;6361;52.120;5.108;2023-04-15T10:25:26;3.97;;;2.65;;
12591;SDS011;6361;52.120;5.108;2023-04-15T10:27:52;6.95;;;2.90;;
12591;SDS011;6361;52.120;5.108;2023-04-15T10:30:18;4.28;;;2.70;;
12591;SDS011;6361;52.120;5.108;2023-04-15T10:32:43;4.32;;;2.95;;
12591;SDS011;6361;52.120;5.108;2023-04-15T10:35:09;4.30;;;3.35;;
12591;SDS011;6361;52.120;5.108;2023-04-15T10:37:36;4.45;;;3.60;;
12591;SDS011;6361;52.120;5.108;2023-04-15T10:45:17;5.45;;;3.92;;
12591;SDS011;6361;52.120;5.108;2023-04-15T10:47:43;4.72;;;3.50;;
12591;SDS011;6361;52.120;5.108;2023-04-15T10:50:08;5.25;;;3.78;;
12591;SDS011;6361;52.120;5.108;2023-04-15T10:52:34;8.85;;;4.30;;
12591;SDS011;6361;52.120;5.108;2023-04-15T10:55:19;5.45;;;3.80;;
12591;SDS011;6361;52.120;5.108;2023-04-15T10:57:46;5.68;;;3.83;;
12591;SDS011;6361;52.120;5.108;2023-04-15T11:00:15;5.05;;;3.83;;
12591;SDS011;6361;52.120;5.108;2023-04-15T11:02:51;6.50;;;4.50;;
12591;SDS011;6361;52.120;5.108;2023-04-15T11:06:05;5.35;;;4.03;;
12591;SDS011;6361;52.120;5.108;2023-04-15T11:08:06;5.85;;;4.30;;
12591;SDS011;6361;52.120;5.108;2023-04-15T11:13:19;5.85;;;4.72;;
12591;SDS011;6361;52.120;5.108;2023-04-15T11:15:47;7.70;;;4.70;;
12591;SDS011;6361;52.120;5.108;2023-04-15T11:20:41;6.68;;;4.25;;
12591;SDS011;6361;52.120;5.108;2023-04-15T11:23:11;6.85;;;4.20;;
12591;SDS011;6361;52.120;5.108;2023-04-15T11:25:36;7.30;;;4.57;;
12591;SDS011;6361;52.120;5.108;2023-04-15T11:28:02;7.35;;;4.65;;
12591;SDS011;6361;52.120;5.108;2023-04-15T11:30:29;6.40;;;4.35;;
12591;SDS011;6361;52.120;5.108;2023-04-15T11:32:59;7.70;;;3.90;;
12591;SDS011;6361;52.120;5.108;2023-04-15T11:35:26;6.25;;;3.63;;
12591;SDS011;6361;52.120;5.108;2023-04-15T11:37:52;4.18;;;3.60;;
12591;SDS011;6361;52.120;5.108;2023-04-15T11:40:22;4.20;;;3.25;;
12591;SDS011;6361;52.120;5.108;2023-04-15T11:43:06;6.15;;;3.35;;
12591;SDS011;6361;52.120;5.108;2023-04-15T11:45:34;4.05;;;2.88;;
12591;SDS011;6361;52.120;5.108;2023-04-15T11:48:10;5.32;;;2.55;;
12591;SDS011;6361;52.120;5.108;2023-04-15T11:50:37;3.42;;;2.30;;
12591;SDS011;6361;52.120;5.108;2023-04-15T11:53:05;5.22;;;2.40;;
12591;SDS011;6361;52.120;5.108;2023-04-15T11:55:42;3.00;;;2.35;;
12591;SDS011;6361;52.120;5.108;2023-04-15T12:01:00;4.20;;;2.70;;
12591;SDS011;6361;52.120;5.108;2023-04-15T12:03:29;6.55;;;2.70;;
12591;SDS011;6361;52.120;5.108;2023-04-15T12:06:13;5.00;;;2.33;;
12591;SDS011;6361;52.120;5.108;2023-04-15T12:16:49;2.67;;;2.10;;
12591;SDS011;6361;52.120;5.108;2023-04-15T12:19:27;4.70;;;2.70;;
12591;SDS011;6361;52.120;5.108;2023-04-15T12:21:58;4.28;;;3.00;;
12591;SDS011;6361;52.120;5.108;2023-04-15T12:24:25;4.57;;;2.80;;
12591;SDS011;6361;52.120;5.108;2023-04-15T12:26:53;3.25;;;2.75;;
12591;SDS011;6361;52.120;5.108;2023-04-15T12:29:25;4.90;;;3.03;;
12591;SDS011;6361;52.120;5.108;2023-04-15T12:31:53;5.07;;;3.20;;
12591;SDS011;6361;52.120;5.108;2023-04-15T12:34:30;4.03;;;3.05;;
12591;SDS011;6361;52.120;5.108;2023-04-15T12:37:00;6.68;;;3.42;;
12591;SDS011;6361;52.120;5.108;2023-04-15T12:39:27;4.82;;;3.00;;
12591;SDS011;6361;52.120;5.108;2023-04-15T12:41:54;5.43;;;2.75;;
12591;SDS011;6361;52.120;5.108;2023-04-15T12:44:21;5.88;;;2.90;;
12591;SDS011;6361;52.120;5.108;2023-04-15T12:46:47;5.95;;;2.92;;
12591;SDS011;6361;52.120;5.108;2023-04-15T12:49:13;7.40;;;2.70;;
12591;SDS011;6361;52.120;5.108;2023-04-15T12:51:40;8.05;;;3.22;;
12591;SDS011;6361;52.120;5.108;2023-04-15T12:54:05;4.82;;;3.33;;
12591;SDS011;6361;52.120;5.108;2023-04-15T12:56:31;4.65;;;3.17;;
12591;SDS011;6361;52.120;5.108;2023-04-15T12:58:56;4.70;;;2.80;;
12591;SDS011;6361;52.120;5.108;2023-04-15T13:01:21;6.63;;;3.03;;
12591;SDS011;6361;52.120;5.108;2023-04-15T13:03:47;6.13;;;2.90;;
12591;SDS011;6361;52.120;5.108;2023-04-15T13:06:14;6.80;;;4.05;;
12591;SDS011;6361;52.120;5.108;2023-04-15T13:08:40;4.50;;;2.70;;
12591;SDS011;6361;52.120;5.108;2023-04-15T13:11:05;4.65;;;2.53;;
12591;SDS011;6361;52.120;5.108;2023-04-15T13:13:31;5.38;;;2.28;;
12591;SDS011;6361;52.120;5.108;2023-04-15T13:15:57;3.17;;;2.33;;
12591;SDS011;6361;52.120;5.108;2023-04-15T13:18:22;5.93;;;2.60;;
12591;SDS011;6361;52.120;5.108;2023-04-15T13:20:48;5.22;;;2.40;;
12591;SDS011;6361;52.120;5.108;2023-04-15T13:23:14;3.20;;;2.00;;
12591;SDS011;6361;52.120;5.108;2023-04-15T13:25:39;7.22;;;2.40;;
12591;SDS011;6361;52.120;5.108;2023-04-15T13:28:05;4.97;;;2.30;;
12591;SDS011;6361;52.120;5.108;2023-04-15T13:30:30;2.70;;;1.85;;
12591;SDS011;6361;52.120;5.108;2023-04-15T13:32:55;3.60;;;2.03;;
12591;SDS011;6361;52.120;5.108;2023-04-15T13:35:21;4.78;;;1.70;;
12591;SDS011;6361;52.120;5.108;2023-04-15T13:37:46;4.05;;;1.45;;
12591;SDS011;6361;52.120;5.108;2023-04-15T13:40:12;2.88;;;1.40;;
12591;SDS011;6361;52.120;5.108;2023-04-15T13:42:37;2.80;;;1.50;;
12591;SDS011;6361;52.120;5.108;2023-04-15T13:45:02;4.95;;;1.40;;
12591;SDS011;6361;52.120;5.108;2023-04-15T13:47:28;2.13;;;1.20;;
12591;SDS011;6361;52.120;5.108;2023-04-15T13:49:53;1.52;;;1.13;;
12591;SDS011;6361;52.120;5.108;2023-04-15T13:52:20;3.80;;;1.33;;
12591;SDS011;6361;52.120;5.108;2023-04-15T13:54:46;2.78;;;1.23;;
12591;SDS011;6361;52.120;5.108;2023-04-15T13:57:12;2.20;;;1.00;;
12591;SDS011;6361;52.120;5.108;2023-04-15T13:59:37;3.38;;;1.30;;
12591;SDS011;6361;52.120;5.108;2023-04-15T14:02:03;3.53;;;1.10;;
12591;SDS011;6361;52.120;5.108;2023-04-15T14:04:29;3.30;;;1.40;;
12591;SDS011;6361;52.120;5.108;2023-04-15T14:06:55;3.67;;;1.40;;
12591;SDS011;6361;52.120;5.108;2023-04-15T14:09:20;5.85;;;1.65;;
12591;SDS011;6361;52.120;5.108;2023-04-15T14:11:47;4.03;;;1.80;;
12591;SDS011;6361;52.120;5.108;2023-04-15T14:14:13;4.90;;;1.70;;
12591;SDS011;6361;52.120;5.108;2023-04-15T14:16:39;2.40;;;1.50;;
12591;SDS011;6361;52.120;5.108;2023-04-15T14:19:04;4.13;;;1.75;;
12591;SDS011;6361;52.120;5.108;2023-04-15T14:21:30;3.92;;;1.55;;
12591;SDS011;6361;52.120;5.108;2023-04-15T14:23:56;2.53;;;1.35;;
12591;SDS011;6361;52.120;5.108;2023-04-15T14:26:22;2.53;;;1.38;;
12591;SDS011;6361;52.120;5.108;2023-04-15T14:28:48;4.57;;;1.60;;
12591;SDS011;6361;52.120;5.108;2023-04-15T14:31:13;4.85;;;1.50;;
12591;SDS011;6361;52.120;5.108;2023-04-15T14:33:38;3.42;;;1.35;;
12591;SDS011;6361;52.120;5.108;2023-04-15T14:36:04;3.92;;;1.58;;
12591;SDS011;6361;52.120;5.108;2023-04-15T14:38:35;5.05;;;1.67;;
12591;SDS011;6361;52.120;5.108;2023-04-15T14:41:06;4.53;;;1.52;;
12591;SDS011;6361;52.120;5.108;2023-04-15T14:43:32;5.53;;;1.65;;
12591;SDS011;6361;52.120;5.108;2023-04-15T14:45:58;4.32;;;1.40;;
12591;SDS011;6361;52.120;5.108;2023-04-15T14:48:24;4.30;;;1.27;;
12591;SDS011;6361;52.120;5.108;2023-04-15T14:50:49;5.13;;;1.45;;
12591;SDS011;6361;52.120;5.108;2023-04-15T14:53:21;3.72;;;1.75;;
12591;SDS011;6361;52.120;5.108;2023-04-15T14:55:46;3.65;;;1.20;;
12591;SDS011;6361;52.120;5.108;2023-04-15T14:58:11;8.70;;;1.42;;
12591;SDS011;6361;52.120;5.108;2023-04-15T15:00:37;6.55;;;1.30;;
12591;SDS011;6361;52.120;5.108;2023-04-15T15:03:05;7.80;;;1.60;;
12591;SDS011;6361;52.120;5.108;2023-04-15T15:05:40;4.72;;;1.25;;
12591;SDS011;6361;52.120;5.108;2023-04-15T15:08:06;5.70;;;1.40;;
12591;SDS011;6361;52.120;5.108;2023-04-15T15:10:32;7.57;;;1.17;;
12591;SDS011;6361;52.120;5.108;2023-04-15T15:12:58;5.57;;;1.33;;
12591;SDS011;6361;52.120;5.108;2023-04-15T15:15:23;6.38;;;1.60;;